Chattanooga, TN

8:44 AM EST on February 12, 2016 (GMT -0500)
Coolidge Park | | Change Station
CLOSE
Current Station
Personal Weather Station
Location: Chattanooga, TN
Elevation: 673 ft
Nearby Weather Stations

Elev 673 ft 35.06 °N, 85.31 °W | Updated 3 seconds ago

Overcast
Overcast
34.0 °F
Feels Like 34 °F
N
0.0
Wind Variable Wind from West
Gusts 0.0 mph

Today
High -- | Low -- °F
--% Chance of Precip.
Yesterday
High -- | Low -- °F
Precip. -- in
Pressure 30.18 in
Visibility 10.0 miles
Clouds Scattered Clouds 3300 ft
Mostly Cloudy 5000 ft
Overcast 7000 ft
Windchill 34 °F
Dew Point 20 °F
Humidity 55%
Rainfall 0.00 in
Snow Depth Not available.
7:30 AM 6:20 PM
Waxing Crescent, 20% visible
METAR KCHA 121253Z 05006KT 10SM SCT033 BKN050 OVC070 02/M04 A3017 RMK AO2 UPB28E31SNB19E28B31E45 SLP219 P0000 T00171044
Pressure 30.18 in
Visibility 10.0 miles
Clouds Scattered Clouds 3300 ft
Mostly Cloudy 5000 ft
Overcast 7000 ft
Windchill 34 °F
Dew Point 20 °F
Humidity 55%
Rainfall 0.00 in
Snow Depth Not available.
7:30 AM 6:20 PM
Waxing Crescent, 20% visible
METAR KCHA 121253Z 05006KT 10SM SCT033 BKN050 OVC070 02/M04 A3017 RMK AO2 UPB28E31SNB19E28B31E45 SLP219 P0000 T00171044

10-Day Weather Forecast

Almanac

Astronomy

Feb. 12, 2016 Rise Set
Actual Time
Civil Twilight
Nautical Twilight
Astronomical Twilight
Moon
Length of Visible Light
Length of Day
Tomorrow will be .
, % of the Moon is Illuminated

Today's Extremes

State Highs State Lows

Community

WunderPhotos

Upload Photos

1,892,313 photos uploaded!

WunderBlog® & News

Nearby

Air Quality

  Air Quality AQ Index Pollutant
Not available.

Snow Depth

Station Depth Elevation

Earthquake Activity

City Distance Mag. Time & Date
Minimum magnitude displayed is 2.5.

Coastal Water Temperatures

Place Temperature

Stations

Nearby Weather Stations

Station Location Temp. Windchill Dew Point Humidity Wind Precip. Elev Updated Type
                   

Watches & Warnings

There are currently no watches in effect.